Time;durP1;ratioP1;P1;durP2;ratioP2;P2;SDS_P1;SDS_P2;PMS_P1;PMS_P2;Temp;Humidity;BMP_temperature;BMP_pressure;BME280_temperature;BME280_humidity;BME280_pressure;Samples;Min_cycle;Max_cycle;Signal;HPM_P1;HPM_P2
2024/01/20 00:00:52;;;;;;;193.87;101.73;;;;;-1.50;97417.00;;;;5060003;28;20428;-69
2024/01/20 00:03:41;;;;;;;199.87;107.10;;;;;-1.60;97423.00;;;;5060955;28;20454;-69
2024/01/20 00:06:30;;;;;;;193.43;101.20;;;;;-2.10;97423.00;;;;5054880;28;20990;-69
2024/01/20 00:09:20;;;;;;;208.53;108.17;;;;;-2.70;97421.00;;;;5058212;28;20428;-69
2024/01/20 00:12:10;;;;;;;124.80;57.73;;;;;-2.90;97423.00;;;;5055179;28;20946;-69
2024/01/20 00:15:01;;;;;;;136.63;58.77;;;;;-2.60;97431.00;;;;5076858;28;20465;-69
2024/01/20 00:17:51;;;;;;;190.97;82.93;;;;;-2.70;97442.00;;;;5082739;28;20552;-69
2024/01/20 00:20:42;;;;;;;104.63;48.47;;;;;-3.00;97447.00;;;;5087771;28;20425;-69
2024/01/20 00:23:31;;;;;;;108.40;48.63;;;;;-2.70;97456.00;;;;5080607;28;20409;-69
2024/01/20 00:26:20;;;;;;;118.33;49.77;;;;;-2.00;97462.00;;;;5085215;28;21007;-69
2024/01/20 00:29:09;;;;;;;159.83;57.53;;;;;-2.00;97470.00;;;;5085565;28;21187;-69
2024/01/20 00:31:58;;;;;;;291.13;136.13;;;;;-1.90;97474.00;;;;5084918;28;20547;-69
2024/01/20 00:34:48;;;;;;;167.87;59.47;;;;;-2.60;97469.00;;;;5084441;28;21048;-69
2024/01/20 00:37:39;;;;;;;127.27;60.23;;;;;-2.50;97477.00;;;;5085425;28;20484;-69
2024/01/20 00:40:28;;;;;;;204.40;100.13;;;;;-2.50;97470.00;;;;5078438;28;20422;-69
2024/01/20 00:43:18;;;;;;;52.17;33.67;;;;;-2.20;97486.00;;;;5083805;28;20423;-69
2024/01/20 00:46:07;;;;;;;73.33;43.63;;;;;-2.40;97484.00;;;;5084250;28;20440;-69
2024/01/20 00:48:56;;;;;;;71.87;40.33;;;;;-3.30;97471.00;;;;5085263;28;20448;-69
2024/01/20 00:51:46;;;;;;;78.17;41.73;;;;;-2.80;97485.00;;;;5082299;28;20430;-69
2024/01/20 00:54:35;;;;;;;72.20;39.97;;;;;-3.40;97476.00;;;;5083952;28;20469;-69
2024/01/20 00:57:24;;;;;;;80.93;42.20;;;;;-2.90;97496.00;;;;5088157;28;20438;-69
2024/01/20 01:00:14;;;;;;;98.67;48.07;;;;;-3.20;97482.00;;;;5087886;28;20440;-69
2024/01/20 01:03:04;;;;;;;89.63;47.27;;;;;-3.10;97494.00;;;;5063930;28;20429;-69
2024/01/20 01:05:54;;;;;;;221.23;86.97;;;;;-3.10;97493.00;;;;5083112;28;21592;-68
2024/01/20 01:08:44;;;;;;;80.87;40.60;;;;;-2.20;97522.00;;;;5093854;28;20425;-69
2024/01/20 01:11:33;;;;;;;142.67;65.30;;;;;-2.60;97503.00;;;;5088222;28;20421;-69
2024/01/20 01:14:22;;;;;;;220.77;121.37;;;-3.80;99.90;-1.90;97497.00;;;;5077055;28;20848;-69
2024/01/20 01:17:11;;;;;;;110.63;50.07;;;-3.80;99.90;-2.20;97516.00;;;;5074431;28;20994;-69
2024/01/20 01:20:00;;;;;;;104.70;49.23;;;-3.70;99.90;-2.70;97504.00;;;;5073695;28;20423;-69
2024/01/20 01:22:51;;;;;;;110.97;49.73;;;-3.80;99.90;-3.40;97499.00;;;;5065370;28;20431;-69
2024/01/20 01:25:41;;;;;;;119.70;48.80;;;-4.00;99.90;-3.40;97502.00;;;;5067391;28;20501;-70
2024/01/20 01:28:30;;;;;;;129.03;52.77;;;-4.20;99.90;-3.00;97512.00;;;;5062349;28;20439;-69
2024/01/20 01:31:18;;;;;;;56.37;33.17;;;-4.30;99.90;-2.90;97502.00;;;;5060446;28;20907;-69
2024/01/20 01:34:07;;;;;;;103.30;49.67;;;-4.30;99.90;-3.90;97495.00;;;;5068881;28;20470;-69
2024/01/20 01:36:56;;;;;;;131.67;51.70;;;-4.40;99.90;-4.40;97486.00;;;;5066669;28;20468;-68
2024/01/20 01:39:45;;;;;;;133.77;48.83;;;-4.60;99.90;-3.50;97512.00;;;;5065492;28;20426;-69
2024/01/20 01:42:35;;;;;;;220.97;76.30;;;-4.70;99.90;-2.90;97505.00;;;;5065031;28;20427;-69
2024/01/20 01:45:24;;;;;;;112.43;48.30;;;-4.50;99.90;-2.40;97514.00;;;;5068741;28;20423;-69
2024/01/20 01:48:14;;;;;;;74.43;36.60;;;-4.30;99.90;-2.90;97509.00;;;;5066742;28;20462;-69
2024/01/20 01:51:05;;;;;;;24.47;11.50;;;-4.10;99.90;-2.20;97528.00;;;;5062900;28;20434;-69
2024/01/20 01:53:55;;;;;;;24.17;16.47;;;-3.90;99.90;-1.80;97523.00;;;;5065895;28;20422;-69
2024/01/20 01:56:47;;;;;;;63.70;36.90;;;-3.70;99.90;-2.60;97517.00;;;;5065573;28;20453;-69
2024/01/20 01:59:38;;;;;;;152.87;54.83;;;-3.60;99.90;-2.20;97524.00;;;;5064105;28;20434;-69
2024/01/20 02:02:27;;;;;;;90.10;47.07;;;-3.70;99.90;-2.90;97527.00;;;;5067436;28;20418;-69
2024/01/20 02:05:16;;;;;;;115.70;52.70;;;-3.90;99.90;-3.50;97502.00;;;;5064516;28;20418;-68
2024/01/20 02:08:06;;;;;;;109.43;49.00;;;-4.10;99.90;-3.50;97513.00;;;;5067344;28;20454;-69
2024/01/20 02:10:59;;;;;;;80.77;44.20;;;-4.20;99.90;-3.00;97517.00;;;;5073534;28;20939;-69
2024/01/20 02:13:48;;;;;;;76.67;42.47;;;-4.20;99.90;-3.00;97512.00;;;;5072927;28;20457;-69
2024/01/20 02:16:38;;;;;;;87.83;45.10;;;-4.20;99.90;-3.70;97502.00;;;;5064857;28;20439;-69
2024/01/20 02:19:27;;;;;;;89.17;44.53;;;-4.30;99.90;-4.20;97503.00;;;;5069448;28;20442;-69
2024/01/20 02:22:18;;;;;;;101.97;50.70;;;-4.50;99.90;-3.50;97511.00;;;;5067382;28;20434;-69
2024/01/20 02:25:07;;;;;;;99.53;50.17;;;-4.60;99.90;-3.20;97517.00;;;;5066149;28;20442;-68
2024/01/20 02:27:56;;;;;;;102.97;47.03;;;-4.60;99.90;-4.00;97503.00;;;;5062596;28;20450;-70
2024/01/20 02:30:46;;;;;;;98.63;44.20;;;-4.70;99.90;-4.00;97516.00;;;;5066242;28;20422;-69
2024/01/20 02:33:35;;;;;;;111.83;47.60;;;-4.80;99.90;-4.20;97523.00;;;;5062848;28;20500;-69
2024/01/20 02:36:24;;;;;;;112.97;45.13;;;-4.80;99.90;-3.60;97528.00;;;;5070293;28;20927;-69
2024/01/20 02:39:14;;;;;;;151.67;60.20;;;-4.90;99.90;-3.60;97527.00;;;;5075338;28;20429;-69
2024/01/20 02:42:07;;;;;;;188.48;70.53;;;-4.80;99.90;-3.80;97530.00;;;;5071913;28;20442;-69
2024/01/20 02:44:56;;;;;;;162.93;76.17;;;-4.90;99.90;-4.00;97545.00;;;;5071206;28;20596;-69
2024/01/20 02:47:45;;;;;;;73.27;39.07;;;-4.90;99.90;-3.70;97543.00;;;;5066553;28;20473;-69
2024/01/20 02:50:34;;;;;;;134.07;54.13;;;-4.90;99.90;-3.40;97549.00;;;;5066864;28;20461;-69
2024/01/20 02:53:25;;;;;;;66.47;39.33;;;-4.90;99.90;-3.00;97558.00;;;;5072583;28;20430;-69
2024/01/20 02:56:15;;;;;;;78.77;45.67;;;-4.70;99.90;-2.90;97550.00;;;;5072105;28;20463;-67
2024/01/20 02:59:04;;;;;;;91.87;48.23;;;-4.70;99.90;-3.30;97555.00;;;;5073497;28;20426;-70
2024/01/20 03:01:53;;;;;;;107.37;47.40;;;-4.70;99.90;-3.30;97552.00;;;;5064605;28;20433;-70
2024/01/20 03:04:42;;;;;;;90.60;44.47;;;-4.70;99.90;-2.90;97554.00;;;;5073044;28;20429;-70
2024/01/20 03:07:31;;;;;;;178.77;73.87;;;-4.70;99.90;-3.20;97554.00;;;;5055046;28;20443;-70
2024/01/20 03:10:20;;;;;;;94.73;44.73;;;-4.70;99.90;-3.60;97555.00;;;;5065975;28;20444;-69
2024/01/20 03:13:10;;;;;;;111.17;49.53;;;-3.30;99.90;-3.50;97555.00;;;;5067579;28;20427;-69
2024/01/20 03:15:59;;;;;;;231.38;84.95;;;-4.80;99.90;-3.20;97573.00;;;;5056877;28;21129;-70
2024/01/20 03:18:48;;;;;;;65.87;38.53;;;-4.80;99.90;-3.20;97573.00;;;;5058814;28;20207;-70
2024/01/20 03:21:37;;;;;;;67.57;37.60;;;-4.90;99.90;-3.30;97572.00;;;;5067193;28;20999;-69
2024/01/20 03:24:26;;;;;;;84.40;44.27;;;-4.90;99.90;-3.40;97571.00;;;;5060353;28;20415;-69
2024/01/20 03:27:14;;;;;;;100.23;50.97;;;-4.90;99.90;-3.70;97567.00;;;;5064343;28;20472;-69
2024/01/20 03:30:06;;;;;;;96.77;48.00;;;-5.00;99.90;-3.70;97558.00;;;;5060042;28;20423;-70
2024/01/20 03:32:55;;;;;;;102.93;47.30;;;-5.10;99.90;-3.40;97570.00;;;;5062732;28;20439;-68
2024/01/20 03:35:44;;;;;;;141.50;54.80;;;-5.10;99.90;-3.60;97568.00;;;;5063231;28;20490;-68
2024/01/20 03:38:33;;;;;;;173.60;65.82;;;-5.10;99.90;-3.10;97567.00;;;;5063995;28;20473;-69
2024/01/20 03:41:22;;;;;;;104.87;48.87;;;-5.00;99.90;-3.20;97577.00;;;;5064562;28;20700;-70
2024/01/20 03:44:11;;;;;;;113.33;52.67;;;-5.00;99.90;-2.90;97583.00;;;;5067704;28;20423;-68
2024/01/20 03:47:01;;;;;;;103.07;47.07;;;-4.90;99.90;-2.80;97594.00;;;;5065097;28;20441;-69
2024/01/20 03:49:50;;;;;;;159.83;63.07;;;-4.80;99.90;-3.10;97590.00;;;;5057579;28;20433;-69
2024/01/20 03:52:39;;;;;;;91.33;46.80;;;-4.80;99.90;-2.80;97587.00;;;;5056849;28;20939;-70
2024/01/20 03:55:28;;;;;;;147.23;51.23;;;-4.70;99.90;-2.70;97591.00;;;;5065619;28;21018;-69
2024/01/20 03:58:17;;;;;;;124.33;55.07;;;-4.60;99.90;-2.60;97590.00;;;;5065807;28;20450;-69
2024/01/20 04:01:06;;;;;;;63.43;34.60;;;-4.60;99.90;-2.80;97597.00;;;;5066032;28;20427;-69
2024/01/20 04:03:56;;;;;;;100.33;47.07;;;-4.50;99.90;-2.90;97586.00;;;;5062736;28;20786;-69
2024/01/20 04:06:45;;;;;;;112.83;49.10;;;-4.60;99.90;-3.00;97598.00;;;;5065488;28;20499;-69
2024/01/20 04:09:34;;;;;;;113.97;49.50;;;-4.60;99.90;-3.00;97597.00;;;;5065254;28;20780;-69
2024/01/20 04:12:24;;;;;;;144.90;54.00;;;-4.70;99.90;-2.90;97590.00;;;;5064113;28;20426;-70
2024/01/20 04:15:12;;;;;;;56.17;30.30;;;-4.70;99.90;-3.10;97603.00;;;;5060291;28;20422;-69
2024/01/20 04:18:01;;;;;;;93.67;46.30;;;-4.70;99.90;-3.10;97597.00;;;;5063664;28;20438;-69
2024/01/20 04:20:52;;;;;;;30.93;21.67;;;-4.70;99.90;-3.50;97599.00;;;;5065872;28;20430;-69
2024/01/20 04:23:40;;;;;;;131.60;57.00;;;-4.80;99.90;-3.20;97591.00;;;;5064349;28;20426;-69
2024/01/20 04:26:29;;;;;;;98.87;45.63;;;-4.90;99.90;-3.40;97597.00;;;;5062291;28;20426;-69
2024/01/20 04:29:18;;;;;;;74.70;38.47;;;-5.00;99.90;-3.30;97593.00;;;;5068846;28;20436;-69
2024/01/20 04:32:07;;;;;;;128.37;62.57;;;-5.00;99.90;-3.10;97594.00;;;;5068453;28;20456;-69
2024/01/20 04:34:56;;;;;;;65.13;40.20;;;-5.00;99.90;-3.00;97609.00;;;;5069112;28;21127;-69
2024/01/20 04:37:46;;;;;;;92.93;50.97;;;-4.90;99.90;-3.00;97612.00;;;;5088419;22;20494;-68
2024/01/20 04:40:35;;;;;;;71.83;40.17;;;-4.90;99.90;-3.00;97614.00;;;;5092096;28;20429;-68
2024/01/20 04:43:24;;;;;;;94.40;45.20;;;-4.80;99.90;-2.90;97609.00;;;;5095125;28;20525;-68
2024/01/20 04:46:13;;;;;;;119.23;53.77;;;-4.80;99.90;-2.80;97616.00;;;;5104080;28;20465;-68
2024/01/20 04:49:02;;;;;;;157.40;63.77;;;-4.80;99.90;-2.50;97623.00;;;;5081451;28;20437;-68
2024/01/20 04:51:51;;;;;;;85.20;43.83;;;-4.60;99.90;-2.10;97627.00;;;;5087642;28;20425;-69
2024/01/20 04:54:41;;;;;;;103.33;46.97;;;-4.40;99.90;-2.00;97620.00;;;;5081197;28;20422;-69
2024/01/20 04:57:30;;;;;;;125.10;50.50;;;-4.20;99.90;-1.70;97628.00;;;;5083402;28;20426;-71
2024/01/20 05:00:19;;;;;;;127.00;59.27;;;-4.00;99.90;-1.40;97627.00;;;;5080580;28;20427;-71
2024/01/20 05:03:08;;;;;;;101.03;50.67;;;-3.80;99.90;-1.40;97638.00;;;;5075336;28;20435;-71
2024/01/20 05:05:57;;;;;;;100.53;50.30;;;-3.40;99.90;-1.40;97641.00;;;;5078755;28;20834;-71
2024/01/20 05:08:46;;;;;;;99.33;47.57;;;-3.50;99.90;-1.30;97636.00;;;;5076088;28;20466;-71
2024/01/20 05:11:36;;;;;;;173.73;58.23;;;-3.40;99.90;-1.20;97639.00;;;;5070725;28;20433;-71
2024/01/20 05:14:25;;;;;;;97.90;49.40;;;-3.30;99.90;-1.30;97637.00;;;;5085696;28;20425;-70
2024/01/20 05:17:14;;;;;;;99.67;50.37;;;-3.30;99.90;-1.20;97648.00;;;;5073623;28;20418;-70
2024/01/20 05:20:03;;;;;;;109.57;50.63;;;-3.20;99.90;-1.10;97648.00;;;;5078407;28;20429;-69
2024/01/20 05:22:52;;;;;;;130.40;53.07;;;-3.20;99.90;-1.20;97647.00;;;;5073856;28;20511;-70
2024/01/20 05:25:41;;;;;;;156.70;55.43;;;-3.10;99.90;-1.20;97650.00;;;;5077874;28;20430;-69
2024/01/20 05:28:31;;;;;;;148.70;61.77;;;-3.20;99.90;-1.20;97654.00;;;;5072675;28;20449;-70
2024/01/20 05:31:20;;;;;;;136.80;57.03;;;-3.20;99.90;-1.90;97648.00;;;;5084032;28;20803;-69
2024/01/20 05:34:10;;;;;;;128.70;55.83;;;-3.20;99.90;-2.50;97645.00;;;;5073593;28;20418;-68
2024/01/20 05:36:59;;;;;;;116.27;51.23;;;-3.40;99.90;-2.70;97647.00;;;;5087336;28;20444;-68
2024/01/20 05:39:48;;;;;;;118.00;50.63;;;-3.60;99.90;-3.30;97640.00;;;;5078393;28;20435;-71
2024/01/20 05:42:37;;;;;;;115.27;51.53;;;-3.90;99.90;-4.00;97643.00;;;;5071331;28;20431;-72
2024/01/20 05:45:27;;;;;;;105.13;48.87;;;-4.20;99.90;-4.00;97659.00;;;;5072032;28;20411;-70
2024/01/20 05:48:16;;;;;;;121.97;53.57;;;-4.50;99.90;-3.80;97681.00;;;;5077522;28;20437;-72
2024/01/20 05:51:05;;;;;;;116.90;51.70;;;-4.50;99.90;-4.10;97675.00;;;;5052069;28;20435;-70
2024/01/20 05:53:54;;;;;;;148.70;52.00;;;-4.70;99.90;-4.30;97669.00;;;;5077255;28;20438;-73
2024/01/20 05:56:43;;;;;;;78.30;45.47;;;-4.70;99.90;-3.90;97683.00;;;;5083868;28;20899;-68
2024/01/20 05:59:32;;;;;;;129.67;49.83;;;-4.70;99.90;-3.50;97697.00;;;;5080183;28;20453;-71
2024/01/20 06:02:22;;;;;;;117.50;62.47;;;-4.60;99.90;-3.40;97696.00;;;;5041528;28;20423;-66
2024/01/20 06:05:11;;;;;;;20.67;9.17;;;-4.60;99.90;-3.30;97709.00;;;;5075555;28;20434;-70
2024/01/20 06:08:00;;;;;;;14.40;7.23;;;-4.50;99.90;-2.90;97716.00;;;;5077592;28;20473;-69
2024/01/20 06:10:50;;;;;;;15.70;11.87;;;-4.40;99.90;-3.10;97717.00;;;;5084170;28;20434;-71
2024/01/20 06:13:39;;;;;;;9.17;8.27;;;-4.40;99.90;-3.30;97720.00;;;;5080376;28;20437;-70
2024/01/20 06:16:28;;;;;;;93.00;43.17;;;-4.40;99.90;-3.40;97722.00;;;;5038572;28;20418;-71
2024/01/20 06:19:18;;;;;;;23.63;13.43;;;-4.50;99.90;-3.50;97733.00;;;;5054963;28;20443;-69
2024/01/20 06:22:07;;;;;;;37.50;21.23;;;-4.60;99.90;-3.40;97735.00;;;;5080394;28;20430;-72
2024/01/20 06:24:55;;;;;;;27.67;18.00;;;-4.50;99.90;-3.90;97730.00;;;;5073320;28;20422;-68
2024/01/20 06:27:44;;;;;;;92.67;45.97;;;-4.60;99.90;-3.40;97728.00;;;;5047532;28;20469;-67
2024/01/20 06:30:33;;;;;;;85.00;50.90;;;-4.60;99.90;-3.00;97739.00;;;;5048069;28;20431;-67
2024/01/20 06:33:22;;;;;;;15.97;13.27;;;-4.50;99.90;-3.90;97743.00;;;;5073145;28;20434;-72
2024/01/20 06:36:13;;;;;;;26.53;18.90;;;-4.60;99.90;-4.00;97743.00;;;;5069032;28;20520;-69
2024/01/20 06:39:02;;;;;;;108.97;63.97;;;-4.70;99.90;-4.10;97750.00;;;;5041533;28;20473;-68
2024/01/20 06:41:51;;;;;;;27.50;22.50;;;-4.80;99.90;-3.70;97759.00;;;;5073270;28;20830;-68
2024/01/20 06:44:40;;;;;;;99.07;57.90;;;-4.90;99.90;-3.40;97750.00;;;;5038375;28;20426;-69
2024/01/20 06:47:30;;;;;;;104.23;59.87;;;-4.90;99.90;-3.60;97762.00;;;;5037960;28;20472;-70
2024/01/20 06:50:19;;;;;;;110.77;67.90;;;-4.90;99.90;-4.00;97758.00;;;;5034431;28;20435;-69
2024/01/20 06:53:09;;;;;;;112.33;65.40;;;-5.00;99.90;-3.60;97768.00;;;;5037374;28;20425;-68
2024/01/20 06:55:58;;;;;;;28.53;22.77;;;-5.00;99.90;-3.40;97773.00;;;;5079637;28;20429;-70
2024/01/20 06:58:47;;;;;;;43.93;31.00;;;-5.00;99.90;-3.90;97768.00;;;;5072498;28;20441;-70
2024/01/20 07:01:36;;;;;;;135.60;88.53;;;-5.00;99.90;-3.80;97784.00;;;;5044433;28;20435;-69
2024/01/20 07:04:25;;;;;;;206.63;109.87;;;-5.00;99.90;-4.60;97766.00;;;;5040486;28;20460;-73
2024/01/20 07:07:14;;;;;;;148.23;65.77;;;-5.00;99.90;-4.30;97779.00;;;;5032628;28;20612;-73
2024/01/20 07:10:05;;;;;;;223.83;123.00;;;-5.00;99.90;-3.90;97789.00;;;;5031636;28;20846;-70
2024/01/20 07:12:54;;;;;;;185.80;84.50;;;-5.00;99.90;-3.40;97796.00;;;;5026730;28;21950;-68
2024/01/20 07:15:43;;;;;;;242.63;112.30;;;-4.90;99.90;-3.10;97804.00;;;;5036361;28;20446;-69
2024/01/20 07:18:32;;;;;;;249.60;72.72;;;-4.90;99.90;-3.10;97803.00;;;;5053285;28;20461;-69
2024/01/20 07:21:21;;;;;;;151.83;59.33;;;-4.80;99.90;-3.50;97810.00;;;;5082570;28;20222;-68
2024/01/20 07:24:10;;;;;;;172.97;62.13;;;-4.80;99.90;-3.30;97805.00;;;;5073306;28;20450;-70
2024/01/20 07:27:00;;;;;;;164.47;56.90;;;-4.70;99.90;-4.00;97811.00;;;;5079544;28;20461;-69
2024/01/20 07:29:49;;;;;;;198.02;60.47;;;-4.70;99.90;-4.10;97818.00;;;;5054039;28;20439;-68
2024/01/20 07:32:40;;;;;;;162.13;65.17;;;-4.90;99.90;-4.20;97824.00;;;;5077395;28;20196;-73
2024/01/20 07:35:29;;;;;;;192.17;73.60;;;-4.90;99.90;-3.70;97830.00;;;;5081231;28;20449;-68
2024/01/20 07:38:19;;;;;;;170.57;61.57;;;-4.90;99.90;-4.00;97838.00;;;;5082277;28;21753;-69
2024/01/20 07:41:08;;;;;;;204.70;77.25;;;-5.00;99.90;-3.90;97831.00;;;;5063783;28;20491;-72
2024/01/20 07:43:59;;;;;;;139.07;53.60;;;-4.90;99.90;-4.00;97834.00;;;;5081234;28;20203;-71
2024/01/20 07:46:48;;;;;;;144.17;54.77;;;-4.80;99.90;-4.00;97836.00;;;;5075387;28;20429;-73
2024/01/20 07:49:36;;;;;;;139.47;53.13;;;-4.70;99.90;-3.70;97839.00;;;;5074130;28;20454;-72
2024/01/20 07:52:25;;;;;;;151.63;54.70;;;-4.60;99.90;-4.00;97834.00;;;;5082064;28;20453;-73
2024/01/20 07:55:14;;;;;;;165.27;61.80;;;-4.60;99.90;-3.80;97836.00;;;;5082019;28;20433;-66
2024/01/20 07:58:03;;;;;;;176.90;69.07;;;-4.50;99.90;-3.80;97839.00;;;;5080454;28;20468;-67
2024/01/20 08:00:54;;;;;;;161.83;55.10;;;-4.40;99.90;-3.60;97853.00;;;;5080394;28;20428;-66
2024/01/20 08:03:42;;;;;;;169.63;52.93;;;-4.40;99.90;-2.80;97855.00;;;;5076327;28;20824;-70
2024/01/20 08:06:31;;;;;;;165.17;53.73;;;-4.20;99.90;-2.60;97865.00;;;;5081456;28;20437;-68
2024/01/20 08:09:20;;;;;;;194.53;68.83;;;-4.10;99.90;-3.10;97864.00;;;;5082369;28;21008;-68
2024/01/20 08:12:09;;;;;;;191.17;72.40;;;-4.10;99.90;-2.80;97868.00;;;;5086247;28;20429;-68
2024/01/20 08:14:58;;;;;;;184.70;65.63;;;-4.10;99.90;-2.40;97878.00;;;;5084653;28;20437;-69
2024/01/20 08:17:49;;;;;;;189.97;60.33;;;-4.00;99.90;-2.40;97871.00;;;;5085022;28;20457;-69
2024/01/20 08:20:38;;;;;;;204.37;61.13;;;-3.90;99.90;-2.60;97875.00;;;;5085209;28;20461;-68
2024/01/20 08:23:27;;;;;;;139.87;65.57;;;-3.90;99.90;-2.30;97879.00;;;;5084030;28;20435;-69
2024/01/20 08:26:16;;;;;;;105.40;52.67;;;-3.90;99.90;-2.40;97873.00;;;;5078690;28;20441;-70
2024/01/20 08:29:05;;;;;;;114.00;49.23;;;-3.80;99.90;-2.20;97879.00;;;;5087662;28;20473;-69
2024/01/20 08:31:54;;;;;;;112.13;51.27;;;-3.70;99.90;-2.10;97893.00;;;;5085141;28;20434;-70
2024/01/20 08:34:44;;;;;;;149.60;55.00;;;-3.60;99.90;-2.00;97890.00;;;;5081367;28;20436;-69
2024/01/20 08:37:34;;;;;;;150.50;55.37;;;-3.60;99.90;-2.00;97893.00;;;;5083930;28;20429;-70
2024/01/20 08:40:24;;;;;;;162.53;62.47;;;-3.50;99.90;-2.10;97887.00;;;;5084664;28;20440;-71
2024/01/20 08:43:14;;;;;;;118.53;64.40;;;-3.40;99.90;-1.90;97886.00;;;;5085371;28;20429;-70
2024/01/20 08:46:03;;;;;;;111.30;51.37;;;-3.30;99.90;-1.90;97898.00;;;;5083344;28;20431;-68
2024/01/20 08:48:52;;;;;;;107.83;48.37;;;-3.30;99.90;-2.50;97891.00;;;;5084683;28;20519;-69
2024/01/20 08:51:43;;;;;;;121.60;50.80;;;-3.30;99.90;-2.50;97879.00;;;;5080578;28;20448;-72
2024/01/20 08:54:31;;;;;;;130.17;54.20;;;-3.40;99.90;-2.90;97872.00;;;;5080159;28;20429;-72
2024/01/20 08:57:20;;;;;;;141.37;61.47;;;-3.40;99.90;-2.60;97890.00;;;;5085642;28;20426;-70
2024/01/20 09:00:12;;;;;;;137.00;58.27;;;-3.50;99.90;-3.00;97882.00;;;;5081810;28;20786;-72
2024/01/20 09:03:01;;;;;;;136.20;53.80;;;-3.60;99.90;-2.70;97882.00;;;;5082181;28;20430;-71
2024/01/20 09:05:51;;;;;;;146.00;56.10;;;-3.60;99.90;-2.30;97882.00;;;;5079433;28;20458;-68
2024/01/20 09:08:41;;;;;;;210.60;69.70;;;-3.60;99.90;-2.10;97903.00;;;;5081177;28;20473;-72
2024/01/20 09:11:30;;;;;;;128.47;51.87;;;-3.40;99.90;-1.80;97908.00;;;;5082506;28;20430;-68
2024/01/20 09:14:19;;;;;;;155.40;63.83;;;-3.30;99.90;-1.30;97903.00;;;;5077719;28;20960;-69
2024/01/20 09:17:08;;;;;;;158.33;62.30;;;-3.10;99.90;-0.80;97919.00;;;;5080424;28;20480;-69
2024/01/20 09:19:57;;;;;;;145.00;54.97;;;-2.90;99.90;-0.60;97922.00;;;;5078097;28;20431;-70
2024/01/20 09:22:47;;;;;;;155.40;57.17;;;-2.60;99.90;-0.40;97927.00;;;;5079866;28;20441;-70
2024/01/20 09:25:37;;;;;;;201.60;77.47;;;-2.40;99.90;-0.80;97914.00;;;;5080316;28;20441;-67
2024/01/20 09:28:26;;;;;;;158.20;65.07;;;-2.20;99.90;-1.50;97913.00;;;;5077654;28;21058;-72
2024/01/20 09:31:15;;;;;;;198.10;82.30;;;-2.20;99.80;-0.60;97914.00;;;;5080818;28;20452;-68
2024/01/20 09:34:04;;;;;;;166.43;65.13;;;-2.10;99.90;-0.30;97932.00;;;;5080593;28;20437;-69
2024/01/20 09:36:53;;;;;;;175.77;65.13;;;-2.00;99.90;-0.90;97932.00;;;;5079743;28;20529;-67
2024/01/20 09:39:42;;;;;;;159.93;59.13;;;-2.00;99.80;-0.60;97919.00;;;;5081441;28;20468;-68
2024/01/20 09:42:33;;;;;;;194.33;75.97;;;-1.90;99.90;0.00;97932.00;;;;5079218;28;20946;-71
2024/01/20 09:45:23;;;;;;;149.23;67.33;;;-1.80;99.90;0.10;97936.00;;;;5079146;28;20496;-67
2024/01/20 09:48:12;;;;;;;129.97;62.50;;;-1.60;99.80;-0.20;97940.00;;;;5074329;28;20823;-68
2024/01/20 09:51:01;;;;;;;216.00;96.03;;;-1.50;99.40;0.00;97936.00;;;;5080608;28;20543;-69
2024/01/20 09:53:54;;;;;;;116.63;53.97;;;-1.40;98.90;0.30;97926.00;;;;5085143;28;20795;-67
2024/01/20 09:56:43;;;;;;;99.60;51.33;;;-1.20;98.30;0.80;97939.00;;;;5081834;28;20445;-70
2024/01/20 09:59:34;;;;;;;117.13;55.23;;;-1.00;97.60;1.40;97948.00;;;;5079430;28;20979;-68
2024/01/20 10:02:24;;;;;;;130.57;57.63;;;-0.80;97.10;0.90;97936.00;;;;5085027;28;20421;-70
2024/01/20 10:05:14;;;;;;;180.13;73.63;;;-0.60;96.70;1.90;97951.00;;;;5070525;28;20426;-68
2024/01/20 10:08:04;;;;;;;280.03;82.73;;;-0.50;96.40;2.30;97945.00;;;;5079179;28;20474;-68
2024/01/20 10:11:03;;;;;;;203.33;70.83;;;-0.20;97.00;2.60;97954.00;;;;5082663;28;20438;-69
2024/01/20 10:13:52;;;;;;;274.40;75.57;;;0.10;96.70;3.40;97949.00;;;;5077474;28;20555;-70
2024/01/20 10:16:42;;;;;;;249.03;70.87;;;0.40;96.20;3.80;97952.00;;;;5080027;28;20447;-68
2024/01/20 10:19:31;;;;;;;214.73;89.07;;;0.80;95.90;4.30;97951.00;;;;5076658;28;20447;-72
2024/01/20 10:22:20;;;;;;;120.77;59.30;;;1.10;94.80;4.40;97952.00;;;;5080147;28;20427;-69
2024/01/20 10:25:09;;;;;;;140.60;63.10;;;1.50;93.90;4.90;97951.00;;;;5076509;28;20437;-68
2024/01/20 10:27:58;;;;;;;137.20;64.07;;;1.80;93.50;5.40;97948.00;;;;5080877;28;20442;-69
2024/01/20 10:30:47;;;;;;;142.53;64.67;;;2.20;93.50;5.70;97955.00;;;;5075547;28;20480;-68
2024/01/20 10:33:38;;;;;;;166.23;72.60;;;2.50;92.20;6.10;97953.00;;;;5075676;28;20445;-69
2024/01/20 10:36:29;;;;;;;182.40;75.53;;;2.80;91.30;6.30;97946.00;;;;5080504;28;20450;-70
2024/01/20 10:39:21;;;;;;;222.67;90.37;;;3.40;90.50;7.50;97955.00;;;;5087136;22;20496;-72
2024/01/20 10:42:12;;;;;;;223.80;91.33;;;4.60;89.20;8.40;97946.00;;;;5081950;28;20436;-72
2024/01/20 10:45:05;;;;;;;236.67;93.77;;;6.10;84.20;8.50;97944.00;;;;5086029;28;20580;-71
2024/01/20 10:48:08;;;;;;;250.17;93.20;;;7.40;74.90;9.60;97960.00;;;;5089650;28;20659;-71
2024/01/20 10:51:01;;;;;;;270.53;96.10;;;8.30;72.60;10.00;97961.00;;;;5084884;28;20206;-71
2024/01/20 10:53:51;;;;;;;282.47;95.93;;;9.40;68.40;10.50;97966.00;;;;5083415;28;20206;-72
2024/01/20 10:56:40;;;;;;;294.97;103.00;;;10.10;64.20;9.80;97965.00;;;;5082764;28;20207;-72
2024/01/20 10:59:32;;;;;;;302.90;103.17;;;10.50;58.60;8.90;97947.00;;;;5085621;28;20265;-73
2024/01/20 11:02:23;;;;;;;319.57;108.47;;;10.40;55.70;9.20;97955.00;;;;5086576;28;20202;-72
2024/01/20 11:05:22;;;;;;;333.27;113.27;;;10.10;56.20;10.40;97966.00;;;;5085041;28;20211;-73
2024/01/20 11:08:13;;;;;;;340.47;112.67;;;10.50;56.90;10.60;97957.00;;;;5084187;28;20251;-72
2024/01/20 11:11:02;;;;;;;336.60;107.53;;;10.80;55.60;10.20;97958.00;;;;5086283;28;20294;-70
2024/01/20 11:13:51;;;;;;;346.53;107.37;;;11.10;54.80;10.10;97952.00;;;;5083668;28;20195;-70
2024/01/20 11:16:40;;;;;;;357.63;115.90;;;11.10;54.10;10.90;97945.00;;;;5082708;28;20217;-69
2024/01/20 11:19:31;;;;;;;280.50;127.20;;;11.10;54.60;10.20;97942.00;;;;5087072;28;20222;-71
2024/01/20 11:22:34;;;;;;;326.53;116.40;;;10.90;53.00;9.30;97937.00;;;;5085297;28;20218;-69
2024/01/20 11:25:25;;;;;;;200.60;122.27;;;10.80;51.70;9.40;97938.00;;;;5087589;28;20226;-72
2024/01/20 11:28:25;;;;;;;129.10;99.80;;;10.30;52.40;9.40;97924.00;;;;5086906;28;20223;-71
2024/01/20 11:31:20;;;;;;;158.60;111.60;;;10.20;52.90;10.60;97937.00;;;;5085772;28;20191;-71
2024/01/20 11:34:09;;;;;;;140.97;99.77;;;10.50;53.10;11.20;97935.00;;;;5086556;28;20207;-71
2024/01/20 11:37:01;;;;;;;150.53;102.90;;;10.60;53.00;11.50;97933.00;;;;5081668;28;20195;-72
2024/01/20 11:40:02;;;;;;;153.77;104.50;;;10.90;53.30;11.10;97941.00;;;;5082787;28;20666;-72
2024/01/20 11:42:52;;;;;;;144.87;105.23;;;11.30;50.90;11.60;97933.00;;;;5082893;28;20204;-72
2024/01/20 11:45:41;;;;;;;141.53;108.40;;;11.70;50.70;10.90;97930.00;;;;5086562;28;20234;-72
2024/01/20 11:48:31;;;;;;;151.53;111.07;;;11.50;51.00;11.00;97929.00;;;;5084534;28;20223;-71
2024/01/20 11:51:22;;;;;;;169.33;121.90;;;11.20;50.60;10.40;97918.00;;;;5084891;28;20682;-72
2024/01/20 11:54:11;;;;;;;161.43;118.83;;;11.00;50.50;11.90;97937.00;;;;5084583;28;20214;-71
2024/01/20 11:56:59;;;;;;;140.90;105.17;;;10.90;51.80;12.30;97918.00;;;;5082895;28;20859;-71
2024/01/20 11:59:50;;;;;;;177.13;120.13;;;11.10;51.40;12.50;97915.00;;;;5084342;28;20229;-71
2024/01/20 12:02:39;;;;;;;221.70;133.50;;;11.40;50.00;11.80;97903.00;;;;5080878;28;20223;-72
2024/01/20 12:05:28;;;;;;;202.63;129.97;;;11.30;49.00;13.40;97907.00;;;;5083597;28;22316;-72
2024/01/20 12:08:17;;;;;;;197.97;141.83;;;11.60;51.10;13.50;97916.00;;;;5081534;28;20218;-71
2024/01/20 12:11:06;;;;;;;235.67;149.20;;;12.10;49.30;13.00;97906.00;;;;5083785;28;20200;-71
2024/01/20 12:13:55;;;;;;;201.83;142.70;;;12.40;46.80;13.50;97909.00;;;;5085262;28;20207;-70
2024/01/20 12:16:45;;;;;;;234.93;160.73;;;12.40;48.30;14.00;97906.00;;;;5073038;28;20211;-73
2024/01/20 12:19:38;;;;;;;256.63;164.03;;;12.40;48.40;14.00;97901.00;;;;5080413;28;20616;-72